createdAt,value
2022-12-25T00:04:46.049Z,2.46
2022-12-25T00:09:49.935Z,2.38
2022-12-25T00:14:53.524Z,2.50
2022-12-25T00:19:58.568Z,2.51
2022-12-25T00:25:02.075Z,2.33
2022-12-25T00:30:07.025Z,2.34
2022-12-25T00:35:12.105Z,2.30
2022-12-25T00:40:15.780Z,2.28
2022-12-25T00:45:19.451Z,2.19
2022-12-25T00:50:24.345Z,2.16
2022-12-25T00:55:27.854Z,2.17
2022-12-25T01:00:31.503Z,2.24
2022-12-25T01:05:36.496Z,2.13
2022-12-25T01:10:40.235Z,2.09
2022-12-25T01:15:43.717Z,2.09
2022-12-25T01:20:49.280Z,1.96
2022-12-25T01:25:52.857Z,1.98
2022-12-25T01:30:56.380Z,2.09
2022-12-25T01:36:01.254Z,2.33
2022-12-25T01:41:05.089Z,2.36
2022-12-25T01:46:08.897Z,2.62
2022-12-25T01:51:23.120Z,2.79
2022-12-25T01:56:28.321Z,2.86
2022-12-25T02:01:32.220Z,2.81
2022-12-25T02:06:37.472Z,2.99
2022-12-25T02:12:07.236Z,3.03
2022-12-25T02:17:20.192Z,3.26
2022-12-25T02:22:33.643Z,3.37
2022-12-25T02:28:09.068Z,3.49
2022-12-25T02:33:34.885Z,3.50
2022-12-25T02:39:02.360Z,3.84
2022-12-25T02:44:32.255Z,3.87
2022-12-25T02:49:54.661Z,3.79
2022-12-25T02:55:20.412Z,4.03
2022-12-25T03:00:43.236Z,4.38
2022-12-25T03:06:04.313Z,4.66
2022-12-25T03:11:28.474Z,4.89
2022-12-25T03:16:51.479Z,4.99
2022-12-25T03:22:14.911Z,5.14
2022-12-25T03:27:18.555Z,5.01
2022-12-25T03:32:35.190Z,4.72
2022-12-25T03:38:13.792Z,4.71
2022-12-25T03:43:45.421Z,4.74
2022-12-25T03:49:14.811Z,4.78
2022-12-25T03:54:41.960Z,4.68
2022-12-25T04:00:02.980Z,4.72
2022-12-25T04:05:31.415Z,4.89
2022-12-25T04:11:00.688Z,4.92
2022-12-25T04:16:21.882Z,4.95
2022-12-25T04:21:44.489Z,4.91
2022-12-25T04:27:05.791Z,4.98
2022-12-25T04:32:26.795Z,4.91
2022-12-25T04:37:31.950Z,4.95
2022-12-25T04:42:35.550Z,5.10
2022-12-25T04:47:39.344Z,5.12
2022-12-25T04:52:44.469Z,5.05
2022-12-25T04:57:47.927Z,4.94
2022-12-25T05:02:51.604Z,5.04
2022-12-25T05:07:57.686Z,5.11
2022-12-25T05:13:01.390Z,4.98
2022-12-25T05:18:05.324Z,4.91
2022-12-25T05:23:10.542Z,4.89
2022-12-25T05:28:14.196Z,4.79
2022-12-25T05:33:17.714Z,5.00
2022-12-25T05:38:22.626Z,5.06
2022-12-25T05:43:26.190Z,5.08
2022-12-25T05:48:29.852Z,5.23
2022-12-25T05:53:35.268Z,5.36
2022-12-25T05:58:40.195Z,5.27
2022-12-25T06:03:43.910Z,5.36
2022-12-25T06:08:49.026Z,5.43
2022-12-25T06:13:53.997Z,5.55
2022-12-25T06:18:57.628Z,5.78
2022-12-25T06:24:03.101Z,6.05
2022-12-25T06:29:07.220Z,6.13
2022-12-25T06:34:11.040Z,6.21
2022-12-25T06:39:16.121Z,6.07
2022-12-25T06:44:19.555Z,6.35
2022-12-25T06:49:23.538Z,6.46
2022-12-25T06:54:28.727Z,6.65
2022-12-25T06:59:32.322Z,6.71
2022-12-25T07:04:39.909Z,6.75
2022-12-25T07:09:45.215Z,7.13
2022-12-25T07:14:50.321Z,7.40
2022-12-25T07:19:54.316Z,7.43
2022-12-25T07:24:59.437Z,7.32
2022-12-25T07:30:03.427Z,7.45
2022-12-25T07:35:07.837Z,7.83
2022-12-25T07:40:13.900Z,7.95
2022-12-25T07:45:17.653Z,8.05
2022-12-25T07:50:22.102Z,8.04
2022-12-25T07:55:28.166Z,7.88
2022-12-25T08:00:32.880Z,7.88
2022-12-25T08:05:36.750Z,7.92
2022-12-25T08:10:46.425Z,7.97
2022-12-25T08:15:50.224Z,7.79
2022-12-25T08:20:53.765Z,8.10
2022-12-25T08:26:05.481Z,8.13
2022-12-25T08:31:11.673Z,8.17
2022-12-25T08:36:17.563Z,8.09
2022-12-25T08:41:23.076Z,8.30
2022-12-25T08:46:26.794Z,8.27
2022-12-25T08:51:30.445Z,8.12
2022-12-25T08:56:36.661Z,8.13
2022-12-25T09:01:40.441Z,8.25
2022-12-25T09:06:43.984Z,8.39
2022-12-25T09:11:50.268Z,8.51
2022-12-25T09:16:53.847Z,8.62
2022-12-25T09:21:57.418Z,8.75
2022-12-25T09:27:02.568Z,9.03
2022-12-25T09:32:06.975Z,9.32
2022-12-25T09:37:11.622Z,9.43
2022-12-25T09:42:21.935Z,9.37
2022-12-25T09:47:29.193Z,9.48
2022-12-25T09:52:41.223Z,9.41
2022-12-25T09:57:47.455Z,9.45
2022-12-25T10:03:24.796Z,9.63
2022-12-25T10:08:48.297Z,9.66
2022-12-25T10:14:07.525Z,9.63
2022-12-25T10:19:20.201Z,9.90
2022-12-25T10:24:34.181Z,9.82
2022-12-25T10:29:39.923Z,9.78
2022-12-25T10:34:43.789Z,9.94
2022-12-25T10:39:47.388Z,9.90
2022-12-25T10:45:00.796Z,10.47
2022-12-25T10:50:11.067Z,10.81
2022-12-25T10:55:24.957Z,10.88
2022-12-25T11:00:34.525Z,10.59
2022-12-25T11:05:38.202Z,10.47
2022-12-25T11:10:43.970Z,10.27
2022-12-25T11:15:50.323Z,9.99
2022-12-25T11:20:58.003Z,9.69
2022-12-25T11:26:04.103Z,9.75
2022-12-25T11:31:13.677Z,10.00
2022-12-25T11:36:22.808Z,10.03
2022-12-25T11:41:33.789Z,10.16
2022-12-25T11:46:42.945Z,10.24
2022-12-25T11:51:50.539Z,9.95
2022-12-25T11:56:54.626Z,9.56
2022-12-25T12:02:03.169Z,9.37
2022-12-25T12:07:18.266Z,9.47
2022-12-25T12:12:30.808Z,9.33
2022-12-25T12:17:36.218Z,9.47
2022-12-25T12:22:40.096Z,9.60
2022-12-25T12:27:43.875Z,9.47
2022-12-25T12:32:54.318Z,9.44
2022-12-25T12:38:04.318Z,9.40
2022-12-25T12:43:25.389Z,9.03
2022-12-25T12:48:31.574Z,9.01
2022-12-25T12:53:35.181Z,9.15
2022-12-25T12:58:45.277Z,9.08
2022-12-25T13:04:06.730Z,9.27
2022-12-25T13:09:29.243Z,9.34
2022-12-25T13:14:32.987Z,9.42
2022-12-25T13:19:39.408Z,9.52
2022-12-25T13:24:43.096Z,9.44
2022-12-25T13:29:46.842Z,9.73
2022-12-25T13:34:52.647Z,9.79
2022-12-25T13:39:58.205Z,9.75
2022-12-25T13:45:06.728Z,9.82
2022-12-25T13:50:21.082Z,9.70
2022-12-25T13:55:26.795Z,9.91
2022-12-25T14:00:36.886Z,9.81
2022-12-25T14:05:43.752Z,9.81
2022-12-25T14:10:50.624Z,9.80
2022-12-25T14:15:55.691Z,9.65
2022-12-25T14:21:06.061Z,9.80
2022-12-25T14:26:18.076Z,9.79
2022-12-25T14:31:23.612Z,9.86
2022-12-25T14:36:29.982Z,9.80
2022-12-25T14:41:38.483Z,9.88
2022-12-25T14:46:42.194Z,9.71
2022-12-25T14:51:47.450Z,9.58
2022-12-25T14:56:53.927Z,9.54
2022-12-25T15:02:01.291Z,9.37
2022-12-25T15:07:08.511Z,9.44
2022-12-25T15:12:12.066Z,9.44
2022-12-25T15:17:25.491Z,9.41
2022-12-25T15:22:47.763Z,9.47
2022-12-25T15:27:54.398Z,9.49
2022-12-25T15:32:57.964Z,9.58
2022-12-25T15:38:02.993Z,9.59
2022-12-25T15:43:14.531Z,9.47
2022-12-25T15:48:26.071Z,9.53
2022-12-25T15:53:31.312Z,9.60
2022-12-25T15:58:34.991Z,9.66
2022-12-25T16:03:38.697Z,9.71
2022-12-25T16:08:44.804Z,9.78
2022-12-25T16:13:48.726Z,9.80
2022-12-25T16:18:52.365Z,9.73
2022-12-25T16:23:57.301Z,9.66
2022-12-25T16:29:06.561Z,9.88
2022-12-25T16:34:11.132Z,9.72
2022-12-25T16:39:16.082Z,9.73
2022-12-25T16:44:19.746Z,9.63
2022-12-25T16:49:23.508Z,9.68
2022-12-25T16:54:28.803Z,9.79
2022-12-25T16:59:33.075Z,9.94
2022-12-25T17:04:36.814Z,9.70
2022-12-25T17:09:44.524Z,9.51
2022-12-25T17:14:48.654Z,9.74
2022-12-25T17:19:52.351Z,9.82
2022-12-25T17:24:57.682Z,9.87
2022-12-25T17:30:01.284Z,9.89
2022-12-25T17:35:05.244Z,9.88
2022-12-25T17:40:11.654Z,9.92
2022-12-25T17:45:15.843Z,9.95
2022-12-25T17:50:19.511Z,10.00
2022-12-25T17:55:24.598Z,9.96
2022-12-25T18:00:28.588Z,9.88
2022-12-25T18:05:32.226Z,9.99
2022-12-25T18:10:38.779Z,10.00
2022-12-25T18:15:42.743Z,9.95
2022-12-25T18:20:46.560Z,10.19
2022-12-25T18:25:53.239Z,10.34
2022-12-25T18:30:56.939Z,10.41
2022-12-25T18:36:02.094Z,10.30
2022-12-25T18:41:09.770Z,10.41
2022-12-25T18:46:15.461Z,10.45
2022-12-25T18:51:19.337Z,10.54
2022-12-25T18:56:24.419Z,10.50
2022-12-25T19:01:29.006Z,10.50
2022-12-25T19:06:33.463Z,10.49
2022-12-25T19:11:45.924Z,10.45
2022-12-25T19:16:50.381Z,10.66
2022-12-25T19:21:55.065Z,10.40
2022-12-25T19:27:00.090Z,10.45
2022-12-25T19:32:03.703Z,10.56
2022-12-25T19:37:07.382Z,10.59
2022-12-25T19:42:12.453Z,10.54
2022-12-25T19:47:16.150Z,10.54
2022-12-25T19:52:19.986Z,10.61
2022-12-25T19:57:25.347Z,10.61
2022-12-25T20:02:29.072Z,10.50
2022-12-25T20:07:32.878Z,10.43
2022-12-25T20:12:38.281Z,10.39
2022-12-25T20:17:41.899Z,10.17
2022-12-25T20:22:49.222Z,9.96
2022-12-25T20:27:54.816Z,9.74
2022-12-25T20:32:59.289Z,9.32
2022-12-25T20:38:03.024Z,9.33
2022-12-25T20:43:08.058Z,9.46
2022-12-25T20:48:11.778Z,9.38
2022-12-25T20:53:15.658Z,9.21
2022-12-25T20:58:20.695Z,9.14
2022-12-25T21:03:24.535Z,9.25
2022-12-25T21:08:29.008Z,9.08
2022-12-25T21:13:36.285Z,9.06
2022-12-25T21:18:40.074Z,9.17
2022-12-25T21:23:43.774Z,9.20
2022-12-25T21:28:49.837Z,9.34
2022-12-25T21:33:55.158Z,9.34
2022-12-25T21:39:00.752Z,9.31
2022-12-25T21:44:06.282Z,9.30
2022-12-25T21:49:10.586Z,9.10
2022-12-25T21:54:15.652Z,9.21
2022-12-25T21:59:22.154Z,9.43
2022-12-25T22:04:26.292Z,9.71
2022-12-25T22:09:30.294Z,10.04
2022-12-25T22:14:56.215Z,10.24
2022-12-25T22:20:00.888Z,10.24
2022-12-25T22:25:06.956Z,10.31
2022-12-25T22:30:14.470Z,10.38
2022-12-25T22:35:18.807Z,10.25
2022-12-25T22:40:22.738Z,10.22
2022-12-25T22:45:27.707Z,10.28
2022-12-25T22:50:31.531Z,10.26
2022-12-25T22:55:35.244Z,10.23
2022-12-25T23:00:46.379Z,10.18
2022-12-25T23:05:55.505Z,10.25
2022-12-25T23:11:03.371Z,10.21
2022-12-25T23:16:14.213Z,10.20
2022-12-25T23:21:36.927Z,10.11
2022-12-25T23:31:55.982Z,10.07
2022-12-25T23:36:59.596Z,9.92
2022-12-25T23:42:04.040Z,9.93
2022-12-25T23:47:09.839Z,9.99
2022-12-25T23:52:14.848Z,9.94
2022-12-25T23:57:18.847Z,10.02
